Time;durP1;ratioP1;P1;durP2;ratioP2;P2;SDS_P1;SDS_P2;PMS_P1;PMS_P2;Temp;Humidity;BMP_temperature;BMP_pressure;BME280_temperature;BME280_humidity;BME280_pressure;Samples;Min_cycle;Max_cycle;Signal;HPM_P1;HPM_P2
2024/02/15 00:00:22;;;;;;;6.60;4.32;;;11.70;99.90;;;;;;5095811;28;20044;-69
2024/02/15 00:03:08;;;;;;;6.68;4.38;;;11.70;99.90;;;;;;5097416;28;20048;-69
2024/02/15 00:05:54;;;;;;;9.18;4.90;;;11.70;99.90;;;;;;5102730;28;20040;-69
2024/02/15 00:08:40;;;;;;;8.68;4.72;;;11.70;99.90;;;;;;5102460;28;20047;-69
2024/02/15 00:11:26;;;;;;;7.88;5.10;;;11.70;99.90;;;;;;5092926;28;20051;-69
2024/02/15 00:14:12;;;;;;;6.82;5.10;;;11.70;99.90;;;;;;5096260;28;20063;-69
2024/02/15 00:16:58;;;;;;;9.15;5.28;;;11.70;99.90;;;;;;5097152;28;20150;-68
2024/02/15 00:19:44;;;;;;;7.90;5.43;;;11.70;99.90;;;;;;5092441;28;20031;-68
2024/02/15 00:22:30;;;;;;;8.32;5.05;;;11.70;99.90;;;;;;5094692;28;20428;-68
2024/02/15 00:25:16;;;;;;;7.45;5.97;;;11.70;99.90;;;;;;5091649;28;20249;-68
2024/02/15 00:28:02;;;;;;;8.95;5.55;;;11.70;99.90;;;;;;5096536;28;20060;-68
2024/02/15 00:30:48;;;;;;;10.13;6.80;;;11.70;99.90;;;;;;5099835;28;20039;-68
2024/02/15 00:33:36;;;;;;;10.20;5.85;;;11.70;99.90;;;;;;5099019;28;20135;-68
2024/02/15 00:36:23;;;;;;;8.05;5.78;;;11.70;99.90;;;;;;5088200;28;20044;-68
2024/02/15 00:39:08;;;;;;;6.75;5.70;;;11.70;99.90;;;;;;5087535;28;20563;-68
2024/02/15 00:41:55;;;;;;;7.03;5.60;;;11.70;99.90;;;;;;5099356;28;20036;-68
2024/02/15 00:44:41;;;;;;;8.05;5.78;;;11.70;99.90;;;;;;5083405;28;20031;-68
2024/02/15 00:47:28;;;;;;;7.10;5.28;;;11.70;99.90;;;;;;5098458;28;20485;-68
2024/02/15 00:50:14;;;;;;;10.23;5.78;;;11.70;99.90;;;;;;5105106;28;20046;-68
2024/02/15 00:53:00;;;;;;;8.30;5.50;;;11.70;99.90;;;;;;5099080;28;20050;-68
2024/02/15 00:55:46;;;;;;;8.18;6.28;;;11.70;99.90;;;;;;5101053;28;20503;-68
2024/02/15 00:58:32;;;;;;;8.10;5.47;;;11.70;99.90;;;;;;5102160;28;20078;-68
2024/02/15 01:01:18;;;;;;;9.52;6.40;;;11.70;99.90;;;;;;5095223;28;20174;-68
2024/02/15 01:04:04;;;;;;;7.32;5.72;;;11.70;99.90;;;;;;5095966;28;20395;-68
2024/02/15 01:06:51;;;;;;;8.05;6.28;;;11.70;99.90;;;;;;5103116;28;20043;-68
2024/02/15 01:09:37;;;;;;;9.18;6.25;;;11.70;99.90;;;;;;5102737;28;20475;-68
2024/02/15 01:12:23;;;;;;;7.78;5.13;;;11.70;99.90;;;;;;5101945;28;20053;-68
2024/02/15 01:15:09;;;;;;;8.07;6.05;;;11.70;99.90;;;;;;5102468;28;20120;-68
2024/02/15 01:17:55;;;;;;;8.15;6.78;;;11.70;99.90;;;;;;5095021;28;20395;-68
2024/02/15 01:20:41;;;;;;;8.05;5.90;;;11.70;99.90;;;;;;5104052;28;20047;-68
2024/02/15 01:23:27;;;;;;;6.63;5.30;;;11.70;99.90;;;;;;5108239;28;20051;-68
2024/02/15 01:26:14;;;;;;;7.03;5.57;;;11.70;99.90;;;;;;5102357;28;20048;-68
2024/02/15 01:29:00;;;;;;;9.18;5.95;;;11.70;99.90;;;;;;5093863;28;20125;-67
2024/02/15 01:31:46;;;;;;;8.43;6.35;;;11.70;99.90;;;;;;5094291;28;20056;-66
2024/02/15 01:34:32;;;;;;;8.07;6.03;;;11.70;99.90;;;;;;5101482;28;20441;-67
2024/02/15 01:37:18;;;;;;;7.40;6.05;;;11.80;99.90;;;;;;5102265;28;20408;-67
2024/02/15 01:40:07;;;;;;;7.65;6.05;;;11.80;99.90;;;;;;5098436;28;20028;-67
2024/02/15 01:42:53;;;;;;;8.90;5.82;;;11.80;99.90;;;;;;5084828;28;20048;-66
2024/02/15 01:45:38;;;;;;;6.72;5.75;;;11.80;99.90;;;;;;5097433;28;20397;-69
2024/02/15 01:48:25;;;;;;;7.78;5.25;;;11.80;99.90;;;;;;5096797;28;20046;-66
2024/02/15 01:51:14;;;;;;;7.03;5.95;;;11.80;99.90;;;;;;5097327;28;20480;-66
2024/02/15 01:54:01;;;;;;;9.25;5.90;;;11.80;99.90;;;;;;5091577;28;20082;-67
2024/02/15 01:56:47;;;;;;;8.32;5.90;;;11.80;99.90;;;;;;5097638;28;20050;-67
2024/02/15 01:59:33;;;;;;;9.00;6.68;;;11.80;99.90;;;;;;5098713;28;20044;-66
2024/02/15 02:02:22;;;;;;;7.53;5.72;;;11.80;99.90;;;;;;5097811;28;20044;-67
2024/02/15 02:05:08;;;;;;;8.43;5.75;;;11.70;99.90;;;;;;5098166;28;20115;-67
2024/02/15 02:07:55;;;;;;;6.97;6.22;;;11.80;99.90;;;;;;5099827;28;20115;-67
2024/02/15 02:10:41;;;;;;;8.18;6.22;;;11.80;99.90;;;;;;5098392;28;20044;-67
2024/02/15 02:13:27;;;;;;;10.55;6.57;;;11.80;99.90;;;;;;5102285;28;20502;-67
2024/02/15 02:16:27;;;;;;;8.05;7.15;;;11.80;99.90;;;;;;5097487;28;20530;-67
2024/02/15 02:19:13;;;;;;;8.23;6.32;;;11.80;99.90;;;;;;5098707;28;20046;-66
2024/02/15 02:21:59;;;;;;;7.78;6.55;;;11.80;99.90;;;;;;5095056;28;20032;-67
2024/02/15 02:24:58;;;;;;;8.18;6.15;;;11.80;99.90;;;;;;5108729;28;20040;-67
2024/02/15 02:27:44;;;;;;;9.15;6.47;;;11.80;99.90;;;;;;5095870;28;20516;-67
2024/02/15 02:30:30;;;;;;;7.57;6.00;;;11.80;99.90;;;;;;5096713;28;20044;-67
2024/02/15 02:33:22;;;;;;;9.65;7.20;;;11.80;99.90;;;;;;5096893;28;20059;-67
2024/02/15 02:36:10;;;;;;;9.43;7.10;;;11.80;99.90;;;;;;5091247;28;20508;-67
2024/02/15 02:39:00;;;;;;;8.82;7.35;;;11.80;99.90;;;;;;5104572;28;20126;-67
2024/02/15 02:41:46;;;;;;;9.02;6.75;;;11.80;99.90;;;;;;5101544;28;20043;-67
2024/02/15 02:44:32;;;;;;;10.38;7.47;;;11.80;99.90;;;;;;5091132;28;20111;-66
2024/02/15 02:47:18;;;;;;;9.27;7.95;;;11.80;99.90;;;;;;5097036;28;20517;-66
2024/02/15 02:50:04;;;;;;;9.18;7.15;;;11.80;99.90;;;;;;5095211;28;20036;-66
2024/02/15 02:52:50;;;;;;;8.77;7.50;;;11.80;99.90;;;;;;5098289;28;20189;-66
2024/02/15 02:55:36;;;;;;;8.90;7.57;;;11.80;99.90;;;;;;5091905;28;20064;-66
2024/02/15 02:58:25;;;;;;;10.32;8.43;;;11.90;99.90;;;;;;5097564;28;20525;-66
2024/02/15 03:01:11;;;;;;;9.23;7.68;;;11.90;99.90;;;;;;5098196;28;20280;-67
2024/02/15 03:03:57;;;;;;;9.48;7.43;;;11.90;99.90;;;;;;5096251;28;20118;-67
2024/02/15 03:06:43;;;;;;;10.55;7.28;;;11.90;99.90;;;;;;5093639;28;20484;-67
2024/02/15 03:09:29;;;;;;;8.90;7.32;;;11.90;99.90;;;;;;5098208;28;20098;-67
2024/02/15 03:12:17;;;;;;;9.98;7.47;;;11.90;99.90;;;;;;5098683;28;20064;-67
2024/02/15 03:15:04;;;;;;;7.97;7.07;;;11.90;99.90;;;;;;5095732;28;20036;-67
2024/02/15 03:17:51;;;;;;;8.70;7.57;;;12.00;99.90;;;;;;5092848;28;20039;-67
2024/02/15 03:20:37;;;;;;;8.30;7.00;;;12.00;99.90;;;;;;5091052;28;20136;-68
2024/02/15 03:23:23;;;;;;;9.68;7.68;;;12.00;99.90;;;;;;5089525;28;20047;-68
2024/02/15 03:26:09;;;;;;;10.27;7.57;;;12.00;99.90;;;;;;5093352;28;20131;-67
2024/02/15 03:28:55;;;;;;;11.38;8.25;;;12.00;99.90;;;;;;5099590;28;20048;-68
2024/02/15 03:31:41;;;;;;;9.82;7.18;;;12.00;99.90;;;;;;5102822;28;20058;-68
2024/02/15 03:34:27;;;;;;;8.98;7.70;;;12.00;99.90;;;;;;5098025;28;20079;-68
2024/02/15 03:37:13;;;;;;;9.07;7.65;;;12.00;99.90;;;;;;5094706;28;20052;-68
2024/02/15 03:39:59;;;;;;;8.85;7.38;;;12.00;99.90;;;;;;5103659;28;20039;-68
2024/02/15 03:42:46;;;;;;;9.85;7.22;;;12.00;99.90;;;;;;5090590;28;20036;-68
2024/02/15 03:45:32;;;;;;;9.88;7.03;;;12.00;99.90;;;;;;5083178;28;20044;-68
2024/02/15 03:48:18;;;;;;;9.55;7.55;;;12.00;99.90;;;;;;5080626;28;20124;-68
2024/02/15 03:51:06;;;;;;;9.98;7.53;;;12.00;99.90;;;;;;5091965;28;20048;-68
2024/02/15 03:53:52;;;;;;;8.73;7.35;;;12.00;99.90;;;;;;5097465;28;20036;-68
2024/02/15 03:56:51;;;;;;;10.68;7.50;;;12.00;99.90;;;;;;5107067;28;20494;-68
2024/02/15 03:59:37;;;;;;;9.25;6.78;;;12.00;99.90;;;;;;5083775;28;20484;-68
2024/02/15 04:02:29;;;;;;;10.48;7.57;;;12.00;99.90;;;;;;5103494;28;20119;-68
2024/02/15 04:05:15;;;;;;;9.70;7.53;;;12.00;99.90;;;;;;5103163;28;20036;-68
2024/02/15 04:08:02;;;;;;;10.02;8.00;;;12.00;99.90;;;;;;5082306;28;20082;-68
2024/02/15 04:10:48;;;;;;;11.50;8.05;;;12.00;99.90;;;;;;5092165;28;20040;-68
2024/02/15 04:13:34;;;;;;;9.85;8.07;;;12.00;99.90;;;;;;5101982;28;20066;-68
2024/02/15 04:16:20;;;;;;;9.23;7.82;;;12.00;99.90;;;;;;5094599;28;20040;-68
2024/02/15 04:19:06;;;;;;;11.50;8.40;;;12.00;99.90;;;;;;5097580;28;20044;-68
2024/02/15 04:21:52;;;;;;;14.73;9.77;;;12.00;99.90;;;;;;5093569;28;20075;-68
2024/02/15 04:24:39;;;;;;;10.60;8.65;;;12.00;99.90;;;;;;5102130;28;20403;-68
2024/02/15 04:27:25;;;;;;;10.15;8.52;;;12.00;99.90;;;;;;5104812;28;20066;-68
2024/02/15 04:30:11;;;;;;;9.98;8.25;;;12.00;99.90;;;;;;5094916;28;20036;-68
2024/02/15 04:32:57;;;;;;;10.52;8.65;;;12.00;99.90;;;;;;5095895;28;20048;-68
2024/02/15 04:35:43;;;;;;;11.13;9.20;;;12.00;99.90;;;;;;5101730;28;20105;-68
2024/02/15 04:38:29;;;;;;;11.05;9.38;;;12.00;99.90;;;;;;5095667;28;20054;-68
2024/02/15 04:41:19;;;;;;;11.93;9.60;;;12.00;99.90;;;;;;5094756;28;20033;-68
2024/02/15 04:44:08;;;;;;;11.45;9.18;;;12.00;99.90;;;;;;5102344;28;20496;-69
2024/02/15 04:46:55;;;;;;;12.98;10.07;;;12.00;99.90;;;;;;5101201;28;20044;-68
2024/02/15 04:49:42;;;;;;;13.35;10.40;;;12.00;99.90;;;;;;5098084;28;20035;-68
2024/02/15 04:52:28;;;;;;;13.77;10.07;;;12.00;99.90;;;;;;5105599;28;20118;-68
2024/02/15 04:55:15;;;;;;;14.60;10.90;;;12.00;99.90;;;;;;5100761;28;20069;-68
2024/02/15 04:58:01;;;;;;;12.20;10.30;;;12.00;99.90;;;;;;5095341;28;20044;-68
2024/02/15 05:00:52;;;;;;;11.98;9.80;;;12.00;99.90;;;;;;5101991;28;20036;-68
2024/02/15 05:03:38;;;;;;;11.52;9.68;;;12.00;99.90;;;;;;5099226;28;20123;-67
2024/02/15 05:06:29;;;;;;;14.65;9.98;;;12.00;99.90;;;;;;5104356;28;20028;-67
2024/02/15 05:09:18;;;;;;;12.50;9.02;;;12.00;99.90;;;;;;5082624;28;20112;-67
2024/02/15 05:12:05;;;;;;;12.55;8.93;;;12.00;99.90;;;;;;5101989;28;20075;-67
2024/02/15 05:14:51;;;;;;;12.93;9.90;;;12.00;99.90;;;;;;5100974;28;20450;-67
2024/02/15 05:17:40;;;;;;;12.70;9.20;;;12.10;99.90;;;;;;5094017;28;20039;-67
2024/02/15 05:20:26;;;;;;;10.57;8.07;;;12.10;99.90;;;;;;5092231;28;20032;-67
2024/02/15 05:23:12;;;;;;;9.50;8.10;;;12.10;99.90;;;;;;5101990;28;20075;-67
2024/02/15 05:25:58;;;;;;;12.80;8.45;;;12.10;99.90;;;;;;5097645;28;20036;-68
2024/02/15 05:28:45;;;;;;;10.50;8.38;;;12.10;99.90;;;;;;5097197;28;20055;-67
2024/02/15 05:31:31;;;;;;;10.70;7.43;;;12.10;99.90;;;;;;5093437;28;20416;-67
2024/02/15 05:34:17;;;;;;;10.00;8.23;;;12.20;99.90;;;;;;5099041;28;20478;-67
2024/02/15 05:37:03;;;;;;;11.50;8.50;;;12.10;99.90;;;;;;5101011;28;20052;-67
2024/02/15 05:39:55;;;;;;;8.82;7.50;;;12.10;99.90;;;;;;5092655;28;20476;-67
2024/02/15 05:42:46;;;;;;;9.85;6.55;;;12.10;99.90;;;;;;5096650;28;20036;-68
2024/02/15 05:45:34;;;;;;;9.98;7.70;;;12.10;99.90;;;;;;5102064;28;20051;-68
2024/02/15 05:48:21;;;;;;;10.00;7.70;;;12.10;99.90;;;;;;5098827;28;20384;-67
2024/02/15 05:51:08;;;;;;;9.38;7.60;;;12.10;99.90;;;;;;5104781;28;20139;-67
2024/02/15 05:53:58;;;;;;;9.38;7.50;;;12.20;99.90;;;;;;5098483;28;20427;-68
2024/02/15 05:56:44;;;;;;;9.30;6.93;;;12.20;99.90;;;;;;5096065;28;20043;-68
2024/02/15 05:59:30;;;;;;;10.20;7.85;;;12.20;99.90;;;;;;5104143;28;20500;-70
2024/02/15 06:02:16;;;;;;;11.25;8.07;;;12.20;99.90;;;;;;5094377;28;20040;-67
2024/02/15 06:05:04;;;;;;;10.85;7.40;;;12.20;99.90;;;;;;5100471;28;20047;-65
2024/02/15 06:07:49;;;;;;;9.52;7.15;;;12.20;99.90;;;;;;5083413;28;20046;-68
2024/02/15 06:10:36;;;;;;;9.75;7.65;;;12.20;99.90;;;;;;5089509;28;20032;-65
2024/02/15 06:13:23;;;;;;;8.70;6.90;;;12.20;99.90;;;;;;5091300;28;20046;-66
2024/02/15 06:16:09;;;;;;;9.70;7.05;;;12.20;99.90;;;;;;5091620;28;20048;-66
2024/02/15 06:18:55;;;;;;;9.77;7.07;;;12.20;99.90;;;;;;5096672;28;20408;-66
2024/02/15 06:21:41;;;;;;;11.05;7.82;;;12.20;99.90;;;;;;5089970;28;20044;-66
2024/02/15 06:24:28;;;;;;;10.38;7.38;;;12.20;99.90;;;;;;5104586;28;20470;-66
2024/02/15 06:27:15;;;;;;;9.45;7.45;;;12.20;99.90;;;;;;5098310;28;20043;-66
2024/02/15 06:42:19;;;;;;;8.57;6.82;;;12.30;99.90;;;;;;5097297;28;20384;-67
2024/02/15 06:45:07;;;;;;;10.43;7.03;;;12.30;99.90;;;;;;5087583;28;20062;-67
2024/02/15 06:47:53;;;;;;;9.55;7.18;;;12.30;99.90;;;;;;5098508;28;20031;-67
2024/02/15 06:50:39;;;;;;;9.40;7.20;;;12.30;99.90;;;;;;5098562;28;20158;-66
2024/02/15 06:53:25;;;;;;;7.97;6.75;;;12.40;99.90;;;;;;5090245;28;20047;-68
2024/02/15 06:56:11;;;;;;;9.68;7.30;;;12.40;99.90;;;;;;5097467;28;20050;-68
2024/02/15 06:58:58;;;;;;;10.63;6.90;;;12.30;99.90;;;;;;5087635;28;20093;-68
2024/02/15 07:01:44;;;;;;;8.82;6.78;;;12.40;99.90;;;;;;5097504;28;20035;-68
2024/02/15 07:04:31;;;;;;;8.77;6.93;;;12.40;99.90;;;;;;5102966;28;20116;-68
2024/02/15 07:07:17;;;;;;;10.38;7.70;;;12.40;99.90;;;;;;5097096;28;20036;-68
2024/02/15 07:10:03;;;;;;;10.32;7.50;;;12.40;99.90;;;;;;5099290;28;20043;-68
2024/02/15 07:12:49;;;;;;;16.55;9.00;;;12.40;99.90;;;;;;5101649;28;20491;-68
2024/02/15 07:15:37;;;;;;;12.20;8.30;;;12.50;99.90;;;;;;5093950;28;20076;-68
2024/02/15 07:18:25;;;;;;;11.77;7.72;;;12.40;99.90;;;;;;5096018;28;20063;-68
2024/02/15 07:21:13;;;;;;;10.05;7.63;;;12.50;99.90;;;;;;5092165;28;20040;-68
2024/02/15 07:24:00;;;;;;;10.82;9.10;;;12.50;99.90;;;;;;5093657;28;20111;-68
2024/02/15 07:26:46;;;;;;;11.35;8.70;;;12.50;99.90;;;;;;5096346;28;20098;-68
2024/02/15 07:29:32;;;;;;;10.80;8.88;;;12.50;99.90;;;;;;5096083;28;20119;-66
2024/02/15 07:32:18;;;;;;;12.88;8.95;;;12.60;99.90;;;;;;5103335;28;20056;-66
2024/02/15 07:35:07;;;;;;;15.68;8.95;;;12.60;99.90;;;;;;5096859;28;20480;-68
2024/02/15 07:37:58;;;;;;;11.07;8.23;;;12.60;99.90;;;;;;5096047;28;20055;-67
2024/02/15 07:40:44;;;;;;;10.68;8.35;;;12.60;99.90;;;;;;5100001;28;20470;-67
2024/02/15 07:43:31;;;;;;;10.40;8.15;;;12.70;99.90;;;;;;5097747;28;20048;-68
2024/02/15 07:46:17;;;;;;;9.95;7.75;;;12.70;99.90;;;;;;5091773;28;20054;-67
2024/02/15 07:49:03;;;;;;;10.55;8.05;;;12.70;99.90;;;;;;5104506;27;20132;-68
2024/02/15 07:51:52;;;;;;;10.23;8.38;;;12.70;99.90;;;;;;5101220;28;20054;-68
2024/02/15 07:54:39;;;;;;;12.32;8.13;;;12.70;99.90;;;;;;5105913;28;20042;-67
2024/02/15 07:57:26;;;;;;;11.18;8.32;;;12.80;99.90;;;;;;5095557;28;20040;-66
2024/02/15 08:00:12;;;;;;;10.55;7.50;;;12.80;99.90;;;;;;5094034;28;20174;-67
2024/02/15 08:02:59;;;;;;;14.45;8.13;;;12.80;99.90;;;;;;5092349;28;20043;-67
2024/02/15 08:05:44;;;;;;;10.05;8.18;;;12.90;99.90;;;;;;5098781;28;20546;-68
2024/02/15 08:08:30;;;;;;;10.15;7.13;;;12.90;99.90;;;;;;5098993;28;20044;-68
2024/02/15 08:11:16;;;;;;;10.82;8.23;;;12.90;99.90;;;;;;5100286;28;20051;-68
2024/02/15 08:14:02;;;;;;;11.02;7.25;;;13.00;99.90;;;;;;5083022;28;20486;-68
2024/02/15 08:16:48;;;;;;;10.82;8.35;;;13.00;99.90;;;;;;5089220;28;20512;-68
2024/02/15 08:19:36;;;;;;;11.90;8.55;;;13.10;99.90;;;;;;5087888;28;20074;-69
2024/02/15 08:22:23;;;;;;;12.52;10.40;;;13.10;99.90;;;;;;5091619;28;20040;-66
2024/02/15 08:25:11;;;;;;;17.05;11.48;;;13.20;99.90;;;;;;5101383;28;20047;-67
2024/02/15 08:27:57;;;;;;;12.13;10.27;;;13.20;99.90;;;;;;5078406;28;20047;-67
2024/02/15 08:30:43;;;;;;;14.80;11.55;;;13.30;99.90;;;;;;5092239;28;20048;-66
2024/02/15 08:33:30;;;;;;;17.42;13.07;;;13.30;99.90;;;;;;5100999;28;20107;-67
2024/02/15 08:36:16;;;;;;;14.73;13.23;;;13.30;99.90;;;;;;5095431;28;20520;-67
2024/02/15 08:39:03;;;;;;;14.00;11.57;;;13.40;99.90;;;;;;5091242;28;20546;-67
2024/02/15 08:41:53;;;;;;;15.55;12.35;;;13.40;99.90;;;;;;5093708;28;20040;-66
2024/02/15 08:44:38;;;;;;;12.55;10.77;;;13.40;99.90;;;;;;5101417;28;20047;-67
2024/02/15 08:47:24;;;;;;;12.68;9.77;;;13.40;99.90;;;;;;5093800;28;20064;-67
2024/02/15 08:50:11;;;;;;;11.73;9.02;;;13.50;99.90;;;;;;5096019;28;20389;-69
2024/02/15 08:52:57;;;;;;;11.05;8.13;;;13.50;99.90;;;;;;5097030;28;20054;-67
2024/02/15 08:55:43;;;;;;;11.00;8.73;;;13.50;99.90;;;;;;5091315;28;20105;-67
2024/02/15 08:58:30;;;;;;;12.40;9.30;;;13.50;99.90;;;;;;5098256;28;20411;-67
2024/02/15 09:01:15;;;;;;;12.95;9.00;;;13.50;99.90;;;;;;5093769;28;20643;-67
2024/02/15 09:04:02;;;;;;;14.05;9.77;;;13.50;99.90;;;;;;5100781;28;20499;-67
2024/02/15 09:06:48;;;;;;;13.85;10.43;;;13.50;99.90;;;;;;5091244;28;20502;-67
2024/02/15 09:09:35;;;;;;;14.13;9.75;;;13.60;99.90;;;;;;5092715;28;20142;-67
2024/02/15 09:12:22;;;;;;;12.70;9.20;;;13.60;99.90;;;;;;5111176;27;20044;-67
2024/02/15 09:15:10;;;;;;;13.27;10.27;;;13.60;99.90;;;;;;5101814;28;20100;-67
2024/02/15 09:17:57;;;;;;;12.85;9.60;;;13.60;99.90;;;;;;5100576;27;20043;-67
2024/02/15 09:20:47;;;;;;;11.63;8.20;;;13.70;99.90;;;;;;5106658;28;20040;-67
2024/02/15 09:23:33;;;;;;;14.93;9.77;;;13.70;99.90;;;;;;5089348;28;20101;-67
2024/02/15 09:26:19;;;;;;;15.38;9.05;;;13.80;99.90;;;;;;5093669;28;20044;-67
2024/02/15 09:29:05;;;;;;;9.40;7.28;;;13.90;99.90;;;;;;5094645;28;20067;-67
2024/02/15 09:31:52;;;;;;;8.98;6.55;;;13.90;99.90;;;;;;5101388;28;20148;-67
2024/02/15 09:34:38;;;;;;;11.48;8.00;;;14.00;99.90;;;;;;5105348;28;20036;-67
2024/02/15 09:37:26;;;;;;;11.45;7.43;;;14.10;99.90;;;;;;5104017;28;20048;-67
2024/02/15 09:40:13;;;;;;;12.45;9.02;;;14.10;99.90;;;;;;5096093;28;20040;-67
2024/02/15 09:42:59;;;;;;;12.02;8.20;;;14.10;99.90;;;;;;5100608;28;20047;-67
2024/02/15 09:45:48;;;;;;;12.85;8.52;;;14.10;99.90;;;;;;5095653;28;21236;-67
2024/02/15 09:48:34;;;;;;;11.50;8.10;;;14.10;99.90;;;;;;5103517;28;20056;-67
2024/02/15 09:51:21;;;;;;;10.70;7.35;;;14.10;99.90;;;;;;5092452;28;20051;-67
2024/02/15 09:54:09;;;;;;;8.20;6.10;;;14.10;99.90;;;;;;5102541;28;20472;-67
2024/02/15 09:56:58;;;;;;;8.95;5.93;;;14.10;99.90;;;;;;5099186;28;20035;-67
2024/02/15 09:59:44;;;;;;;13.15;6.13;;;14.10;99.90;;;;;;5094533;28;20168;-67
2024/02/15 10:02:32;;;;;;;9.57;6.45;;;14.10;99.90;;;;;;5098561;28;20077;-67
2024/02/15 10:05:18;;;;;;;8.43;6.15;;;14.10;99.90;;;;;;5101977;28;20128;-66
2024/02/15 10:08:07;;;;;;;12.05;7.03;;;14.10;99.90;;;;;;5097774;28;20040;-66
2024/02/15 10:11:08;;;;;;;9.35;6.90;;;14.10;99.90;;;;;;5083352;28;20118;-66
2024/02/15 10:14:09;;;;;;;12.55;6.55;;;14.10;99.90;;;;;;5102292;28;20465;-67
2024/02/15 10:16:56;;;;;;;11.07;6.82;;;14.10;99.90;;;;;;5077732;28;20107;-67
2024/02/15 10:19:43;;;;;;;11.13;7.78;;;14.10;99.90;;;;;;5094642;28;20044;-66
2024/02/15 10:22:29;;;;;;;12.65;8.30;;;14.20;99.90;;;;;;5095198;28;20036;-67
2024/02/15 10:25:15;;;;;;;12.65;9.43;;;14.20;99.90;;;;;;5094164;28;20048;-67
2024/02/15 10:28:03;;;;;;;18.30;12.80;;;14.30;99.90;;;;;;5092437;28;20113;-67
2024/02/15 10:30:52;;;;;;;15.98;11.82;;;14.30;99.90;;;;;;5086801;28;20032;-67
2024/02/15 10:33:39;;;;;;;13.90;10.18;;;14.40;99.90;;;;;;5096770;28;20036;-67
2024/02/15 10:36:26;;;;;;;14.35;9.90;;;14.40;99.90;;;;;;5095694;28;20474;-67
2024/02/15 10:39:19;;;;;;;10.75;8.00;;;14.50;99.90;;;;;;5098797;28;20039;-67
2024/02/15 10:42:07;;;;;;;11.23;8.68;;;14.50;99.90;;;;;;5099929;28;20455;-67
2024/02/15 10:44:53;;;;;;;9.55;7.18;;;14.60;99.90;;;;;;5106955;28;20040;-67
2024/02/15 10:47:40;;;;;;;9.77;6.82;;;14.60;99.90;;;;;;5110734;28;20093;-67
2024/02/15 10:50:26;;;;;;;9.07;6.47;;;14.60;99.90;;;;;;5091781;28;20047;-67
2024/02/15 10:53:24;;;;;;;6.35;4.35;;;14.70;99.90;;;;;;5095499;28;20089;-67
2024/02/15 10:56:22;;;;;;;8.57;5.40;;;14.70;99.90;;;;;;5090939;28;20503;-67
2024/02/15 10:59:23;;;;;;;9.45;4.53;;;14.70;99.90;;;;;;5102797;28;20088;-67
2024/02/15 11:02:29;;;;;;;9.25;4.43;;;14.70;99.90;;;;;;5090368;28;20052;-67
2024/02/15 11:05:21;;;;;;;5.80;4.28;;;14.80;99.90;;;;;;5088358;28;20040;-67
2024/02/15 11:08:09;;;;;;;5.50;4.32;;;14.90;99.90;;;;;;5091839;28;20059;-67
2024/02/15 11:10:58;;;;;;;6.43;4.45;;;14.90;99.90;;;;;;5091915;28;20048;-67
2024/02/15 11:13:44;;;;;;;4.95;3.70;;;14.90;99.90;;;;;;5093005;28;20040;-67
2024/02/15 11:16:43;;;;;;;7.13;4.95;;;15.00;99.90;;;;;;5090916;28;20101;-66
2024/02/15 11:19:35;;;;;;;5.80;3.97;;;15.00;99.90;;;;;;5100392;28;20588;-68
2024/02/15 11:22:22;;;;;;;7.30;3.88;;;15.20;99.90;;;;;;5079310;28;20122;-66
2024/02/15 11:25:11;;;;;;;6.43;3.60;;;15.20;99.90;;;;;;5098508;28;20110;-66
2024/02/15 11:27:57;;;;;;;6.38;4.35;;;15.30;99.90;;;;;;5092816;27;20036;-66
2024/02/15 11:30:45;;;;;;;5.32;3.72;;;15.30;99.90;;;;;;5099478;28;20064;-66
2024/02/15 11:33:35;;;;;;;6.40;3.75;;;15.30;99.90;;;;;;5097380;28;20044;-65
2024/02/15 11:36:31;;;;;;;5.32;3.35;;;15.30;99.90;;;;;;5097698;28;20047;-65
2024/02/15 11:39:42;;;;;;;5.45;3.85;;;15.40;99.90;;;;;;5077979;28;20040;-65
2024/02/15 11:42:28;;;;;;;8.13;5.15;;;15.40;99.90;;;;;;5089964;28;20507;-66
2024/02/15 11:45:18;;;;;;;6.28;3.78;;;15.40;99.90;;;;;;5105838;28;20085;-66
2024/02/15 11:48:12;;;;;;;4.80;3.50;;;15.40;99.90;;;;;;5096357;28;20039;-66
2024/02/15 11:50:58;;;;;;;4.90;3.63;;;15.40;99.90;;;;;;5089496;28;20082;-66
2024/02/15 11:53:44;;;;;;;8.30;3.67;;;15.40;99.90;;;;;;5090984;28;20048;-66
2024/02/15 11:56:33;;;;;;;4.25;3.05;;;15.40;99.90;;;;;;5103642;28;20036;-67
2024/02/15 11:59:28;;;;;;;5.43;3.95;;;15.40;99.90;;;;;;5084999;28;20040;-67
2024/02/15 12:20:44;;;;;;;5.93;3.72;;;15.20;99.90;;;;;;5091415;28;20113;-67
2024/02/15 12:23:35;;;;;;;6.38;4.40;;;15.20;99.90;;;;;;5106109;28;20032;-66
2024/02/15 12:26:23;;;;;;;11.30;4.35;;;15.20;99.90;;;;;;5103250;28;20036;-66
2024/02/15 12:29:12;;;;;;;6.18;3.97;;;15.20;99.90;;;;;;5081493;28;20096;-68
2024/02/15 12:31:58;;;;;;;7.85;4.38;;;15.20;99.90;;;;;;5097486;28;20301;-67
2024/02/15 12:34:44;;;;;;;7.28;4.38;;;15.20;99.90;;;;;;5091418;28;20040;-66
2024/02/15 12:37:30;;;;;;;6.50;4.15;;;15.20;99.90;;;;;;5090799;28;20434;-67
2024/02/15 12:40:18;;;;;;;7.40;4.28;;;15.20;99.90;;;;;;5096573;28;20044;-66
2024/02/15 12:43:10;;;;;;;7.15;4.45;;;15.30;99.90;;;;;;5105564;28;20047;-65
2024/02/15 12:45:57;;;;;;;6.20;4.10;;;15.30;99.90;;;;;;5101213;28;20066;-65
2024/02/15 12:48:43;;;;;;;6.82;4.72;;;15.30;99.90;;;;;;5097917;28;20064;-65
2024/02/15 12:51:31;;;;;;;7.05;3.85;;;15.40;99.90;;;;;;5095445;28;20484;-65
2024/02/15 12:54:21;;;;;;;7.07;3.90;;;15.50;99.90;;;;;;5085299;28;20047;-65
2024/02/15 12:57:10;;;;;;;6.07;4.28;;;15.60;99.90;;;;;;5099491;28;20044;-65
2024/02/15 12:59:56;;;;;;;5.97;3.33;;;15.60;99.90;;;;;;5094430;28;20104;-65
2024/02/15 13:02:42;;;;;;;6.85;3.90;;;15.70;99.90;;;;;;5098907;28;20047;-65
2024/02/15 13:05:28;;;;;;;7.13;3.58;;;15.70;99.90;;;;;;5100387;28;20040;-65
2024/02/15 13:08:17;;;;;;;5.13;3.45;;;15.70;99.90;;;;;;5102133;28;20048;-65
2024/02/15 13:11:03;;;;;;;6.97;3.72;;;15.70;99.90;;;;;;5100246;28;20036;-65
2024/02/15 13:13:49;;;;;;;5.53;3.38;;;15.80;99.90;;;;;;5098682;28;20047;-65
2024/02/15 13:16:35;;;;;;;6.68;3.30;;;15.80;99.90;;;;;;5105861;28;20040;-64
2024/02/15 13:19:21;;;;;;;4.80;3.05;;;15.90;99.90;;;;;;5093191;28;20412;-64
2024/02/15 13:22:08;;;;;;;4.25;2.95;;;15.90;99.90;;;;;;5107756;28;20039;-64
2024/02/15 13:24:55;;;;;;;5.40;3.78;;;16.00;99.90;;;;;;5096647;28;20032;-64
2024/02/15 13:27:41;;;;;;;5.05;3.15;;;16.00;99.90;;;;;;5110146;28;20046;-64
2024/02/15 13:30:27;;;;;;;6.03;3.60;;;16.00;99.90;;;;;;5098164;28;20522;-64
2024/02/15 13:33:14;;;;;;;5.78;3.25;;;16.00;99.90;;;;;;5092244;28;20058;-64
2024/02/15 13:36:00;;;;;;;6.97;4.00;;;16.00;99.90;;;;;;5103804;28;20109;-64
2024/02/15 13:38:46;;;;;;;7.88;3.42;;;16.00;99.90;;;;;;5100454;28;20052;-64
2024/02/15 13:41:32;;;;;;;5.63;3.60;;;16.00;99.90;;;;;;5105917;28;20039;-64
2024/02/15 13:44:19;;;;;;;7.70;3.50;;;16.10;99.90;;;;;;5098681;28;20036;-64
2024/02/15 13:47:05;;;;;;;7.53;3.83;;;16.10;99.90;;;;;;5099569;28;20066;-64
2024/02/15 13:49:51;;;;;;;5.53;3.25;;;16.10;99.90;;;;;;5093861;28;20044;-64
2024/02/15 13:52:37;;;;;;;6.68;3.08;;;16.10;99.90;;;;;;5098252;28;20510;-64
2024/02/15 13:55:25;;;;;;;5.50;3.17;;;16.10;99.90;;;;;;5102641;28;20044;-65
2024/02/15 13:58:12;;;;;;;4.18;3.17;;;16.10;99.90;;;;;;5098067;28;20078;-67
2024/02/15 14:01:00;;;;;;;5.35;3.05;;;16.10;99.90;;;;;;5099301;28;20039;-67
2024/02/15 14:03:46;;;;;;;5.13;3.00;;;16.00;99.90;;;;;;5096080;28;20076;-68
2024/02/15 14:06:33;;;;;;;5.03;2.72;;;16.00;99.90;;;;;;5089771;28;20043;-67
2024/02/15 14:09:19;;;;;;;4.68;2.50;;;16.00;99.90;;;;;;5097138;28;20044;-67
2024/02/15 14:12:05;;;;;;;4.57;2.75;;;16.00;99.90;;;;;;5102819;28;20055;-67
2024/02/15 14:14:51;;;;;;;5.20;2.60;;;16.00;99.90;;;;;;5104535;28;20119;-68
2024/02/15 14:17:38;;;;;;;5.60;2.83;;;16.00;99.90;;;;;;5099430;28;20090;-67
2024/02/15 14:20:24;;;;;;;5.72;2.35;;;16.00;99.90;;;;;;5097216;28;20039;-67
2024/02/15 14:23:13;;;;;;;3.80;2.40;;;16.00;99.90;;;;;;5098690;28;20392;-68
2024/02/15 14:26:00;;;;;;;7.85;2.35;;;16.10;99.90;;;;;;5077863;28;20468;-68
2024/02/15 14:28:49;;;;;;;3.92;2.20;;;16.00;99.90;;;;;;5095852;28;20052;-68
2024/02/15 14:34:41;;;;;;;6.55;2.42;;;16.00;99.90;;;;;;5101214;28;20122;-68
2024/02/15 14:37:27;;;;;;;3.38;2.58;;;15.90;99.90;;;;;;5099007;28;20043;-67
2024/02/15 14:40:14;;;;;;;5.30;2.75;;;15.90;99.90;;;;;;5103775;28;20040;-66
2024/02/15 14:43:00;;;;;;;4.35;2.17;;;15.80;99.90;;;;;;5098083;28;20032;-66
2024/02/15 14:45:47;;;;;;;3.15;2.10;;;15.80;99.90;;;;;;5096198;28;20123;-66
2024/02/15 14:48:33;;;;;;;5.38;3.00;;;15.70;99.90;;;;;;5102126;28;20039;-68
2024/02/15 14:51:19;;;;;;;4.68;2.65;;;15.70;99.90;;;;;;5100433;28;20119;-66
2024/02/15 14:54:05;;;;;;;3.67;2.33;;;15.70;99.90;;;;;;5095258;28;20618;-66
2024/02/15 14:56:51;;;;;;;5.80;2.92;;;15.70;99.90;;;;;;5076664;28;20038;-67
2024/02/15 14:59:38;;;;;;;4.72;2.10;;;15.60;99.90;;;;;;5102166;28;20039;-67